createdAt,value
2022-08-11T00:02:35.225Z,91.00
2022-08-11T00:05:07.464Z,90.90
2022-08-11T00:07:37.316Z,90.90
2022-08-11T00:10:11.953Z,90.80
2022-08-11T00:12:40.759Z,90.90
2022-08-11T00:15:10.486Z,91.00
2022-08-11T00:17:39.302Z,91.00
2022-08-11T00:20:12.027Z,91.20
2022-08-11T00:22:46.335Z,91.10
2022-08-11T00:25:17.568Z,91.10
2022-08-11T00:27:47.046Z,91.20
2022-08-11T00:30:16.336Z,91.10
2022-08-11T00:32:46.854Z,91.10
2022-08-11T00:35:55.702Z,91.10
2022-08-11T00:38:08.871Z,91.30
2022-08-11T00:40:44.027Z,91.20
2022-08-11T00:43:20.526Z,91.40
2022-08-11T00:46:06.217Z,91.40
2022-08-11T00:48:41.311Z,91.80
2022-08-11T00:51:17.240Z,91.70
2022-08-11T00:53:54.187Z,91.70
2022-08-11T00:56:46.041Z,91.70
2022-08-11T00:59:35.815Z,91.70
2022-08-11T01:02:16.717Z,91.70
2022-08-11T01:05:12.453Z,91.40
2022-08-11T01:08:21.039Z,92.00
2022-08-11T01:11:29.416Z,92.00
2022-08-11T01:14:34.128Z,92.00
2022-08-11T01:17:57.149Z,92.10
2022-08-11T01:20:59.726Z,91.90
2022-08-11T01:24:01.934Z,92.40
2022-08-11T01:27:01.334Z,92.30
2022-08-11T01:30:04.794Z,92.30
2022-08-11T01:33:14.467Z,92.20
2022-08-11T01:36:23.142Z,92.40
2022-08-11T01:39:17.861Z,92.40
2022-08-11T01:42:23.304Z,92.60
2022-08-11T01:45:24.054Z,92.70
2022-08-11T01:48:04.157Z,93.00
2022-08-11T01:50:41.736Z,93.60
2022-08-11T01:53:19.880Z,93.90
2022-08-11T01:55:57.400Z,93.80
2022-08-11T01:58:43.271Z,94.00
2022-08-11T02:01:25.420Z,93.80
2022-08-11T02:03:58.436Z,93.60
2022-08-11T02:06:52.166Z,93.30
2022-08-11T02:09:49.706Z,93.40
2022-08-11T02:12:42.179Z,93.70
2022-08-11T02:15:28.303Z,93.70
2022-08-11T02:18:06.063Z,93.70
2022-08-11T02:20:56.480Z,93.80
2022-08-11T02:24:06.735Z,93.80
2022-08-11T02:26:37.693Z,93.60
2022-08-11T02:29:13.724Z,93.90
2022-08-11T02:32:23.955Z,94.00
2022-08-11T02:35:02.700Z,93.90
2022-08-11T02:37:45.125Z,93.90
2022-08-11T02:40:22.485Z,94.00
2022-08-11T02:42:59.107Z,94.60
2022-08-11T02:45:41.298Z,94.60
2022-08-11T02:48:36.235Z,94.50
2022-08-11T02:51:13.630Z,94.30
2022-08-11T02:53:56.165Z,94.20
2022-08-11T02:56:38.913Z,94.00
2022-08-11T02:59:36.583Z,94.30
2022-08-11T03:02:15.355Z,94.40
2022-08-11T03:04:53.555Z,94.20
2022-08-11T03:07:28.493Z,94.50
2022-08-11T03:10:05.236Z,94.40
2022-08-11T03:13:04.098Z,94.00
2022-08-11T03:16:01.849Z,94.10
2022-08-11T03:18:34.420Z,95.00
2022-08-11T03:21:08.877Z,94.90
2022-08-11T03:23:43.040Z,94.60
2022-08-11T03:26:16.967Z,94.20
2022-08-11T03:28:51.467Z,93.80
2022-08-11T03:31:27.588Z,93.50
2022-08-11T03:34:07.270Z,93.10
2022-08-11T03:37:15.971Z,92.80
2022-08-11T03:39:59.087Z,92.50
2022-08-11T03:42:31.575Z,92.20
2022-08-11T03:45:08.787Z,91.90
2022-08-11T03:47:58.953Z,91.70
2022-08-11T03:50:41.050Z,91.50
2022-08-11T03:53:17.816Z,91.30
2022-08-11T03:56:14.350Z,91.10
2022-08-11T03:59:17.614Z,90.90
2022-08-11T04:02:06.332Z,90.80
2022-08-11T04:05:21.900Z,90.60
2022-08-11T04:08:17.371Z,90.40
2022-08-11T04:11:22.481Z,90.20
2022-08-11T04:14:31.099Z,90.10
2022-08-11T04:17:19.634Z,90.00
2022-08-11T04:20:23.860Z,89.80
2022-08-11T04:23:08.868Z,89.60
2022-08-11T04:26:18.507Z,89.40
2022-08-11T04:29:09.385Z,89.20
2022-08-11T04:31:44.361Z,89.20
2022-08-11T04:34:38.069Z,89.10
2022-08-11T04:38:07.541Z,89.00
2022-08-11T04:40:56.275Z,88.70
2022-08-11T04:44:13.347Z,88.60
2022-08-11T04:47:07.211Z,88.40
2022-08-11T04:50:17.307Z,88.30
2022-08-11T04:53:27.929Z,88.10
2022-08-11T04:56:28.421Z,88.00
2022-08-11T04:59:34.156Z,88.00
2022-08-11T05:02:42.625Z,87.90
2022-08-11T05:05:32.663Z,87.90
2022-08-11T05:08:52.401Z,86.30
2022-08-11T05:11:37.208Z,85.30
2022-08-11T05:14:46.706Z,86.50
2022-08-11T05:17:41.775Z,87.50
2022-08-11T05:20:31.187Z,87.10
2022-08-11T05:23:21.629Z,88.30
2022-08-11T05:26:09.968Z,89.20
2022-08-11T05:29:21.758Z,90.10
2022-08-11T05:32:14.524Z,90.50
2022-08-11T05:34:52.396Z,91.10
2022-08-11T05:37:27.281Z,91.00
2022-08-11T05:40:19.463Z,91.40
2022-08-11T05:43:09.280Z,92.00
2022-08-11T05:46:02.929Z,92.30
2022-08-11T05:48:52.732Z,92.40
2022-08-11T05:51:39.083Z,91.70
2022-08-11T05:54:41.604Z,91.20
2022-08-11T05:57:49.646Z,90.20
2022-08-11T06:00:05.588Z,88.70
2022-08-11T06:02:41.984Z,87.50
2022-08-11T06:05:10.959Z,86.70
2022-08-11T06:07:47.316Z,85.00
2022-08-11T06:10:28.827Z,84.10
2022-08-11T06:13:01.094Z,83.20
2022-08-11T06:15:31.134Z,82.60
2022-08-11T06:18:02.937Z,82.30
2022-08-11T06:20:37.475Z,82.70
2022-08-11T06:23:08.693Z,81.50
2022-08-11T06:25:37.795Z,79.50
2022-08-11T06:28:07.966Z,78.30
2022-08-11T06:30:40.788Z,77.30
2022-08-11T06:33:14.478Z,76.40
2022-08-11T06:36:04.614Z,75.20
2022-08-11T06:38:53.887Z,72.90
2022-08-11T06:41:32.056Z,73.60
2022-08-11T06:44:17.456Z,72.40
2022-08-11T06:46:48.003Z,70.70
2022-08-11T06:49:37.291Z,68.90
2022-08-11T06:52:07.689Z,68.50
2022-08-11T06:54:57.231Z,67.10
2022-08-11T06:57:43.503Z,67.50
2022-08-11T07:00:33.298Z,66.00
2022-08-11T07:03:04.671Z,65.10
2022-08-11T07:05:44.732Z,64.40
2022-08-11T07:09:05.906Z,63.60
2022-08-11T07:12:26.967Z,64.50
2022-08-11T07:15:14.517Z,64.10
2022-08-11T07:17:49.441Z,61.50
2022-08-11T07:20:36.707Z,62.50
2022-08-11T07:23:27.704Z,63.10
2022-08-11T07:26:15.688Z,61.90
2022-08-11T07:28:56.615Z,62.30
2022-08-11T07:31:31.612Z,58.70
2022-08-11T07:34:17.898Z,60.50
2022-08-11T07:36:52.182Z,61.20
2022-08-11T07:39:23.349Z,62.40
2022-08-11T07:41:53.551Z,62.60
2022-08-11T07:44:29.430Z,61.40
2022-08-11T07:47:18.921Z,61.10
2022-08-11T07:50:07.769Z,61.20
2022-08-11T07:52:42.295Z,60.10
2022-08-11T07:55:16.209Z,59.00
2022-08-11T07:58:16.352Z,60.40
2022-08-11T08:01:10.218Z,59.20
2022-08-11T08:03:58.335Z,59.60
2022-08-11T08:06:46.050Z,59.90
2022-08-11T08:09:32.899Z,59.00
2022-08-11T08:12:22.492Z,58.00
2022-08-11T08:15:09.558Z,58.60
2022-08-11T08:18:08.371Z,58.60
2022-08-11T08:20:40.912Z,58.50
2022-08-11T08:23:11.096Z,59.40
2022-08-11T08:25:41.696Z,60.90
2022-08-11T08:28:16.318Z,60.80
2022-08-11T08:30:51.662Z,59.10
2022-08-11T08:33:22.729Z,60.40
2022-08-11T08:36:11.647Z,58.40
2022-08-11T08:38:47.729Z,59.80
2022-08-11T08:41:19.195Z,61.30
2022-08-11T08:43:52.221Z,57.70
2022-08-11T08:46:23.570Z,58.10
2022-08-11T08:48:53.270Z,58.80
2022-08-11T08:52:01.091Z,60.50
2022-08-11T08:54:29.065Z,62.10
2022-08-11T08:56:58.134Z,59.40
2022-08-11T08:59:47.762Z,62.40
2022-08-11T09:02:18.427Z,63.50
2022-08-11T09:04:47.931Z,61.00
2022-08-11T09:07:18.884Z,61.90
2022-08-11T09:09:49.825Z,61.80
2022-08-11T09:12:35.719Z,63.00
2022-08-11T09:15:11.727Z,64.70
2022-08-11T09:17:45.010Z,60.80
2022-08-11T09:20:15.267Z,60.80
2022-08-11T09:24:02.110Z,60.80
2022-08-11T09:26:10.290Z,62.10
2022-08-11T09:28:38.947Z,63.40
2022-08-11T09:31:10.878Z,63.70
2022-08-11T09:33:43.101Z,65.20
2022-08-11T09:36:30.728Z,66.50
2022-08-11T09:39:17.637Z,62.40
2022-08-11T09:42:00.879Z,63.30
2022-08-11T09:44:51.944Z,63.30
2022-08-11T09:47:24.376Z,61.10
2022-08-11T09:49:59.844Z,63.00
2022-08-11T09:52:30.949Z,64.60
2022-08-11T09:55:01.683Z,63.80
2022-08-11T09:57:48.343Z,64.40
2022-08-11T10:00:17.885Z,65.20
2022-08-11T10:02:49.649Z,59.30
2022-08-11T10:05:37.988Z,62.10
2022-08-11T10:08:07.375Z,62.70
2022-08-11T10:10:37.968Z,60.50
2022-08-11T10:14:31.759Z,59.50
2022-08-11T10:16:15.257Z,59.50
2022-08-11T10:18:52.625Z,61.60
2022-08-11T10:21:29.183Z,62.00
2022-08-11T10:24:17.463Z,58.80
2022-08-11T10:26:54.512Z,56.50
2022-08-11T10:29:44.532Z,62.00
2022-08-11T10:32:57.276Z,62.90
2022-08-11T10:35:30.862Z,59.40
2022-08-11T10:38:08.051Z,62.30
2022-08-11T10:40:40.896Z,61.50
2022-08-11T10:43:14.043Z,58.30
2022-08-11T10:46:10.426Z,59.20
2022-08-11T10:48:40.056Z,59.70
2022-08-11T10:51:50.092Z,59.60
2022-08-11T10:54:24.311Z,56.40
2022-08-11T10:57:11.783Z,59.70
2022-08-11T10:59:40.892Z,58.80
2022-08-11T11:02:09.847Z,58.70
2022-08-11T11:04:50.386Z,57.60
2022-08-11T11:07:24.259Z,57.10
2022-08-11T11:09:56.367Z,58.80
2022-08-11T11:12:43.994Z,56.70
2022-08-11T11:15:31.366Z,58.50
2022-08-11T11:18:06.938Z,53.10
2022-08-11T11:20:45.014Z,54.90
2022-08-11T11:23:20.423Z,57.30
2022-08-11T11:26:27.717Z,57.00
2022-08-11T11:29:20.581Z,54.60
2022-08-11T11:32:18.847Z,55.20
2022-08-11T11:35:05.791Z,57.30
2022-08-11T11:37:35.697Z,55.20
2022-08-11T11:40:11.515Z,56.90
2022-08-11T11:42:40.994Z,54.00
2022-08-11T11:45:23.946Z,55.90
2022-08-11T11:47:55.155Z,54.80
2022-08-11T11:50:25.180Z,52.90
2022-08-11T11:53:00.871Z,53.80
2022-08-11T11:55:31.608Z,57.90
2022-08-11T11:58:20.376Z,57.00
2022-08-11T12:01:08.775Z,55.90
2022-08-11T12:03:38.023Z,57.90
2022-08-11T12:06:08.959Z,57.10
2022-08-11T12:08:38.462Z,54.50
2022-08-11T12:11:28.543Z,53.40
2022-08-11T12:13:58.842Z,54.40
2022-08-11T12:16:34.444Z,54.40
2022-08-11T12:19:06.842Z,56.60
2022-08-11T12:21:37.011Z,56.90
2022-08-11T12:24:28.458Z,56.90
2022-08-11T12:27:18.342Z,55.10
2022-08-11T12:29:54.549Z,56.20
2022-08-11T12:32:27.504Z,54.20
2022-08-11T12:34:58.059Z,53.40
2022-08-11T12:37:31.453Z,53.50
2022-08-11T12:40:43.206Z,54.30
2022-08-11T12:43:38.325Z,56.10
2022-08-11T12:46:10.534Z,53.60
2022-08-11T12:49:02.942Z,56.80
2022-08-11T12:52:11.726Z,56.60
2022-08-11T12:54:51.809Z,53.70
2022-08-11T12:57:43.582Z,54.70
2022-08-11T13:00:31.789Z,55.70
2022-08-11T13:03:18.411Z,54.60
2022-08-11T13:05:49.739Z,54.80
2022-08-11T13:08:18.730Z,54.80
2022-08-11T13:11:05.011Z,54.60
2022-08-11T13:13:55.408Z,53.70
2022-08-11T13:16:25.071Z,54.20
2022-08-11T13:18:54.019Z,54.20
2022-08-11T13:21:24.103Z,54.80
2022-08-11T13:24:01.143Z,54.10
2022-08-11T13:26:46.772Z,52.70
2022-08-11T13:29:20.183Z,54.30
2022-08-11T13:31:50.519Z,54.60
2022-08-11T13:34:20.387Z,54.40
2022-08-11T13:36:52.202Z,54.60
2022-08-11T13:39:24.257Z,52.90
2022-08-11T13:41:53.513Z,54.40
2022-08-11T13:44:25.757Z,53.80
2022-08-11T13:46:58.753Z,54.60
2022-08-11T13:49:28.773Z,53.50
2022-08-11T13:51:57.790Z,54.50
2022-08-11T13:54:28.521Z,53.80
2022-08-11T13:57:01.090Z,54.20
2022-08-11T13:59:31.097Z,51.10
2022-08-11T14:02:28.405Z,50.60
2022-08-11T14:04:56.515Z,53.00
2022-08-11T14:07:26.797Z,53.40
2022-08-11T14:09:58.981Z,53.50
2022-08-11T14:12:46.850Z,53.40
2022-08-11T14:15:20.008Z,53.00
2022-08-11T14:17:54.144Z,52.00
2022-08-11T14:20:39.288Z,50.50
2022-08-11T14:23:10.981Z,50.50
2022-08-11T14:26:02.603Z,50.50
2022-08-11T14:28:37.871Z,51.30
2022-08-11T14:31:09.520Z,53.50
2022-08-11T14:34:00.789Z,51.50
2022-08-11T14:36:29.780Z,54.20
2022-08-11T14:38:58.427Z,52.20
2022-08-11T14:42:07.377Z,51.90
2022-08-11T14:44:53.490Z,51.30
2022-08-11T14:47:25.674Z,50.40
2022-08-11T14:50:09.478Z,50.20
2022-08-11T14:52:39.994Z,50.00
2022-08-11T14:55:26.844Z,50.00
2022-08-11T14:57:57.490Z,49.90
2022-08-11T15:00:27.003Z,49.50
2022-08-11T15:03:10.698Z,50.20
2022-08-11T15:05:55.939Z,52.10
2022-08-11T15:09:00.107Z,51.30
2022-08-11T15:11:49.103Z,51.50
2022-08-11T15:14:38.772Z,52.80
2022-08-11T15:17:09.856Z,52.50
2022-08-11T15:20:02.176Z,51.40
2022-08-11T15:22:50.279Z,52.60
2022-08-11T15:25:19.944Z,52.70
2022-08-11T15:28:08.231Z,51.60
2022-08-11T15:30:57.562Z,51.40
2022-08-11T15:33:49.104Z,51.20
2022-08-11T15:36:35.015Z,50.60
2022-08-11T15:39:19.639Z,49.80
2022-08-11T15:42:11.759Z,50.70
2022-08-11T15:45:03.543Z,50.40
2022-08-11T15:47:41.341Z,51.10
2022-08-11T15:50:15.277Z,51.30
2022-08-11T15:52:49.607Z,51.60
2022-08-11T15:55:20.183Z,51.90
2022-08-11T15:58:08.774Z,51.60
2022-08-11T16:01:03.909Z,52.80
2022-08-11T16:04:07.278Z,52.20
2022-08-11T16:06:42.840Z,52.30
2022-08-11T16:09:19.166Z,52.50
2022-08-11T16:11:50.438Z,52.50
2022-08-11T16:14:38.145Z,52.00
2022-08-11T16:17:08.691Z,52.20
2022-08-11T16:19:38.026Z,52.30
2022-08-11T16:22:09.666Z,52.30
2022-08-11T16:27:04.429Z,52.60
2022-08-11T16:27:37.738Z,52.20
2022-08-11T16:30:07.951Z,52.60
2022-08-11T16:32:39.819Z,52.80
2022-08-11T16:35:28.418Z,52.70
2022-08-11T16:38:15.441Z,53.40
2022-08-11T16:40:46.601Z,53.90
2022-08-11T16:43:39.056Z,53.50
2022-08-11T16:46:32.233Z,53.20
2022-08-11T16:49:02.529Z,53.20
2022-08-11T16:51:31.784Z,53.40
2022-08-11T16:54:05.952Z,53.80
2022-08-11T16:56:38.480Z,54.30
2022-08-11T16:59:17.637Z,54.30
2022-08-11T17:01:53.141Z,54.20
2022-08-11T17:04:46.972Z,54.30
2022-08-11T17:07:40.342Z,54.40
2022-08-11T17:10:51.691Z,54.90
2022-08-11T17:13:27.631Z,55.10
2022-08-11T17:16:08.906Z,55.40
2022-08-11T17:18:44.277Z,55.70
2022-08-11T17:21:19.071Z,55.40
2022-08-11T17:23:52.301Z,55.70
2022-08-11T17:26:26.596Z,55.80
2022-08-11T17:28:58.293Z,55.80
2022-08-11T17:31:46.518Z,56.30
2022-08-11T17:34:32.907Z,56.50
2022-08-11T17:37:01.658Z,56.50
2022-08-11T17:39:32.473Z,56.70
2022-08-11T17:42:16.166Z,56.70
2022-08-11T17:45:02.983Z,57.10
2022-08-11T17:47:50.747Z,57.20
2022-08-11T17:50:19.579Z,56.60
2022-08-11T17:53:06.151Z,56.80
2022-08-11T17:55:54.118Z,57.20
2022-08-11T17:58:41.094Z,57.30
2022-08-11T18:01:10.952Z,57.60
2022-08-11T18:03:41.813Z,57.70
2022-08-11T18:06:33.519Z,57.70
2022-08-11T18:09:23.140Z,58.00
2022-08-11T18:12:12.233Z,57.70
2022-08-11T18:14:59.604Z,58.10
2022-08-11T18:17:45.474Z,58.50
2022-08-11T18:20:32.616Z,58.10
2022-08-11T18:23:22.151Z,58.30
2022-08-11T18:26:28.354Z,58.50
2022-08-11T18:29:16.478Z,59.70
2022-08-11T18:32:07.298Z,59.80
2022-08-11T18:34:58.163Z,59.70
2022-08-11T18:37:48.679Z,60.20
2022-08-11T18:40:37.991Z,59.90
2022-08-11T18:43:27.475Z,60.00
2022-08-11T18:46:18.577Z,60.70
2022-08-11T18:49:11.816Z,61.40
2022-08-11T18:51:58.318Z,62.90
2022-08-11T18:54:49.943Z,64.10
2022-08-11T18:57:49.372Z,65.20
2022-08-11T19:00:41.046Z,65.70
2022-08-11T19:03:30.192Z,66.60
2022-08-11T19:06:38.291Z,67.50
2022-08-11T19:09:26.966Z,67.80
2022-08-11T19:12:14.947Z,67.80
2022-08-11T19:15:03.699Z,68.30
2022-08-11T19:17:51.676Z,69.00
2022-08-11T19:20:41.161Z,69.70
2022-08-11T19:23:30.056Z,69.80
2022-08-11T19:26:17.192Z,70.30
2022-08-11T19:29:05.739Z,70.10
2022-08-11T19:31:52.770Z,70.50
2022-08-11T19:34:41.126Z,70.90
2022-08-11T19:37:28.756Z,71.20
2022-08-11T19:40:19.781Z,71.60
2022-08-11T19:43:11.265Z,71.40
2022-08-11T19:46:11.536Z,71.80
2022-08-11T19:48:57.862Z,71.80
2022-08-11T19:51:43.930Z,72.70
2022-08-11T19:54:29.883Z,74.10
2022-08-11T19:57:16.347Z,74.70
2022-08-11T20:00:02.728Z,75.30
2022-08-11T20:02:50.290Z,76.10
2022-08-11T20:05:36.289Z,76.60
2022-08-11T20:08:23.197Z,76.40
2022-08-11T20:11:09.718Z,76.50
2022-08-11T20:13:56.726Z,76.40
2022-08-11T20:16:43.664Z,75.90
2022-08-11T20:19:55.197Z,75.80
2022-08-11T20:22:37.305Z,75.60
2022-08-11T20:25:24.964Z,75.90
2022-08-11T20:28:12.286Z,76.40
2022-08-11T20:30:58.595Z,77.40
2022-08-11T20:33:44.286Z,77.70
2022-08-11T20:36:32.468Z,77.90
2022-08-11T20:39:19.152Z,78.10
2022-08-11T20:42:06.898Z,78.20
2022-08-11T20:44:53.403Z,78.40
2022-08-11T20:47:56.571Z,78.90
2022-08-11T20:50:46.682Z,79.00
2022-08-11T20:53:39.063Z,78.90
2022-08-11T20:56:28.201Z,79.50
2022-08-11T20:59:17.790Z,80.00
2022-08-11T21:02:09.896Z,80.60
2022-08-11T21:05:00.018Z,80.80
2022-08-11T21:07:56.866Z,81.10
2022-08-11T21:10:51.209Z,81.20
2022-08-11T21:13:40.223Z,81.90
2022-08-11T21:16:27.754Z,82.10
2022-08-11T21:19:54.608Z,81.70
2022-08-11T21:22:28.376Z,81.90
2022-08-11T21:25:15.777Z,82.50
2022-08-11T21:28:04.364Z,82.60
2022-08-11T21:30:51.066Z,82.60
2022-08-11T21:33:42.383Z,82.40
2022-08-11T21:36:29.336Z,82.00
2022-08-11T21:39:15.710Z,81.90
2022-08-11T21:42:01.934Z,81.80
2022-08-11T21:44:49.442Z,81.70
2022-08-11T21:47:42.920Z,81.90
2022-08-11T21:50:30.374Z,82.20
2022-08-11T21:53:16.739Z,82.30
2022-08-11T21:56:03.859Z,82.70
2022-08-11T21:58:51.603Z,83.00
2022-08-11T22:01:39.603Z,82.60
2022-08-11T22:04:26.248Z,82.50
2022-08-11T22:07:12.534Z,82.80
2022-08-11T22:09:58.358Z,83.50
2022-08-11T22:12:45.443Z,84.00
2022-08-11T22:15:31.252Z,84.20
2022-08-11T22:18:20.140Z,85.00
2022-08-11T22:21:05.943Z,85.00
2022-08-11T22:23:53.932Z,85.50
2022-08-11T22:26:41.283Z,85.80
2022-08-11T22:29:49.891Z,86.50
2022-08-11T22:32:34.387Z,86.60
2022-08-11T22:35:23.230Z,86.10
2022-08-11T22:38:09.664Z,85.70
2022-08-11T22:40:55.976Z,86.60
2022-08-11T22:43:42.079Z,86.90
2022-08-11T22:46:28.208Z,86.90
2022-08-11T22:49:14.397Z,87.20
2022-08-11T22:52:03.443Z,87.40
2022-08-11T22:54:49.721Z,87.20
2022-08-11T22:57:36.371Z,86.70
2022-08-11T23:00:24.029Z,86.30
2022-08-11T23:03:37.006Z,86.40
2022-08-11T23:06:24.202Z,86.30
2022-08-11T23:09:12.007Z,86.60
2022-08-11T23:12:07.726Z,86.60
2022-08-11T23:14:57.572Z,86.80
2022-08-11T23:17:44.342Z,87.00
2022-08-11T23:20:39.087Z,86.90
2022-08-11T23:23:29.523Z,87.40
2022-08-11T23:26:17.203Z,88.30
2022-08-11T23:29:05.193Z,89.20
2022-08-11T23:31:53.928Z,88.60
2022-08-11T23:35:03.813Z,88.10
2022-08-11T23:37:48.155Z,87.60
2022-08-11T23:40:34.179Z,84.70
2022-08-11T23:43:22.104Z,83.90
2022-08-11T23:46:07.891Z,82.70
2022-08-11T23:48:54.812Z,82.70
2022-08-11T23:51:41.722Z,81.00
2022-08-11T23:54:28.364Z,81.90
2022-08-11T23:57:14.761Z,82.70
